Time;durP1;ratioP1;P1;durP2;ratioP2;P2;SDS_P1;SDS_P2;PMS_P1;PMS_P2;Temp;Humidity;BMP_temperature;BMP_pressure;BME280_temperature;BME280_humidity;BME280_pressure;Samples;Min_cycle;Max_cycle;Signal;HPM_P1;HPM_P2
2022/07/07 00:04:12;;;;;;;;;;;;;;;16.61;86.60;100763.41;10544013;28;19924;-64
2022/07/07 00:09:15;;;;;;;;;;;;;;;16.50;86.41;100773.34;10543817;28;20341;-67
2022/07/07 00:14:19;;;;;;;;;;;;;;;16.59;85.95;100765.19;10543363;28;19928;-63
2022/07/07 00:19:23;;;;;;;;;;;;;;;16.52;85.70;100758.41;10543318;28;19932;-70
2022/07/07 00:24:26;;;;;;;;;;;;;;;16.64;85.10;100760.69;10542807;28;19930;-65
2022/07/07 00:29:30;;;;;;;;;;;;;;;16.50;85.72;100757.63;10543210;28;19924;-66
2022/07/07 00:34:33;;;;;;;;;;;;;;;16.52;85.37;100756.66;10542950;28;20330;-66
2022/07/07 00:39:36;;;;;;;;;;;;;;;16.44;86.54;100757.72;10542920;28;19934;-65
2022/07/07 00:44:40;;;;;;;;;;;;;;;16.47;86.37;100765.53;10542658;28;19924;-64
2022/07/07 00:49:43;;;;;;;;;;;;;;;16.51;85.96;100767.19;10542789;28;19924;-66
2022/07/07 00:54:51;;;;;;;;;;;;;;;16.55;84.55;100759.19;10542797;28;19924;-63
2022/07/07 00:59:56;;;;;;;;;;;;;;;16.55;84.71;100758.34;10542730;28;20230;-65
2022/07/07 01:04:59;;;;;;;;;;;;;;;16.49;84.72;100763.72;10542482;28;19924;-68
2022/07/07 01:10:04;;;;;;;;;;;;;;;16.47;84.69;100761.16;10542290;28;19924;-66
2022/07/07 01:15:10;;;;;;;;;;;;;;;16.37;83.54;100758.81;10542325;28;19928;-64
2022/07/07 01:20:13;;;;;;;;;;;;;;;16.49;81.90;100764.59;10542204;28;19925;-63
2022/07/07 01:25:18;;;;;;;;;;;;;;;16.48;81.52;100764.66;10542065;28;19935;-66
2022/07/07 01:30:21;;;;;;;;;;;;;;;16.34;82.31;100764.13;10541949;28;20236;-63
2022/07/07 01:35:24;;;;;;;;;;;;;;;16.41;81.22;100755.19;10544474;28;19924;-65
2022/07/07 01:40:28;;;;;;;;;;;;;;;16.29;82.37;100766.00;10549468;28;20349;-68
2022/07/07 01:45:31;;;;;;;;;;;;;;;16.34;81.71;100759.75;10549613;28;20230;-65
2022/07/07 01:50:34;;;;;;;;;;;;;;;16.43;81.88;100763.88;10549421;28;19934;-66
2022/07/07 01:55:38;;;;;;;;;;;;;;;16.56;80.08;100754.81;10549083;28;19924;-66
2022/07/07 02:00:41;;;;;;;;;;;;;;;16.47;79.91;100762.91;10548980;28;19924;-66
2022/07/07 02:05:44;;;;;;;;;;;;;;;16.40;79.77;100758.72;10548437;28;20363;-67
2022/07/07 02:16:10;;;;;;;;;;;;;;;16.41;79.27;100765.69;10548312;28;19934;-66
2022/07/07 02:21:14;;;;;;;;;;;;;;;16.38;79.05;100760.50;10547749;28;19934;-62
2022/07/07 02:26:18;;;;;;;;;;;;;;;16.35;78.85;100763.22;10547617;28;19934;-65
2022/07/07 02:31:21;;;;;;;;;;;;;;;16.58;78.15;100758.25;10547496;28;19924;-64
2022/07/07 02:36:24;;;;;;;;;;;;;;;16.47;78.84;100760.28;10547341;28;19946;-65
2022/07/07 02:41:28;;;;;;;;;;;;;;;16.49;78.89;100761.97;10547275;28;19924;-64
2022/07/07 02:46:32;;;;;;;;;;;;;;;16.42;79.82;100768.25;10546261;28;19961;-64
2022/07/07 02:51:35;;;;;;;;;;;;;;;16.45;79.22;100762.06;10546673;28;19931;-69
2022/07/07 02:56:39;;;;;;;;;;;;;;;16.39;80.32;100762.25;10546509;28;19931;-67
2022/07/07 03:01:42;;;;;;;;;;;;;;;16.41;78.96;100761.28;10546779;28;19935;-63
2022/07/07 03:06:45;;;;;;;;;;;;;;;16.44;78.91;100763.84;10546208;28;19924;-68
2022/07/07 03:11:49;;;;;;;;;;;;;;;16.39;79.78;100763.13;10546173;28;19924;-63
2022/07/07 03:16:52;;;;;;;;;;;;;;;16.49;79.51;100767.22;10546221;28;19935;-64
2022/07/07 03:21:55;;;;;;;;;;;;;;;16.45;79.73;100762.06;10545657;28;19924;-68
2022/07/07 03:27:00;;;;;;;;;;;;;;;16.38;80.01;100763.13;10545581;28;19924;-63
2022/07/07 03:32:04;;;;;;;;;;;;;;;16.54;81.81;100760.09;10545313;28;20015;-61
2022/07/07 03:37:07;;;;;;;;;;;;;;;16.63;80.10;100764.22;10544822;28;19923;-67
2022/07/07 03:42:11;;;;;;;;;;;;;;;16.59;78.33;100760.81;10545015;28;20326;-63
2022/07/07 03:47:14;;;;;;;;;;;;;;;16.65;77.48;100768.50;10544519;28;19924;-65
2022/07/07 03:52:23;;;;;;;;;;;;;;;16.61;78.30;100758.16;10544548;28;19928;-62
2022/07/07 03:57:28;;;;;;;;;;;;;;;16.59;78.27;100763.44;10544072;28;20003;-66
2022/07/07 04:02:31;;;;;;;;;;;;;;;16.75;77.28;100761.25;10543731;28;20354;-69
2022/07/07 04:07:34;;;;;;;;;;;;;;;16.81;76.59;100761.91;10543706;28;19924;-64
2022/07/07 04:12:38;;;;;;;;;;;;;;;16.94;76.19;100763.31;10543757;28;19924;-63
2022/07/07 04:17:41;;;;;;;;;;;;;;;17.02;75.89;100760.44;10543856;28;20345;-63
2022/07/07 04:22:44;;;;;;;;;;;;;;;16.96;75.98;100748.34;10543551;28;19924;-66
2022/07/07 04:27:49;;;;;;;;;;;;;;;16.85;76.84;100757.44;10543115;28;19924;-67
2022/07/07 04:32:52;;;;;;;;;;;;;;;16.88;77.65;100746.84;10543247;28;19927;-65
2022/07/07 04:37:55;;;;;;;;;;;;;;;16.98;77.62;100736.06;10543078;28;19934;-65
2022/07/07 04:42:59;;;;;;;;;;;;;;;16.99;77.72;100743.03;10542997;28;19934;-65
2022/07/07 04:48:04;;;;;;;;;;;;;;;16.85;77.74;100749.56;10543003;28;19924;-68
2022/07/07 04:53:07;;;;;;;;;;;;;;;16.96;77.54;100747.50;10542592;28;19924;-62
2022/07/07 04:58:11;;;;;;;;;;;;;;;17.01;78.53;100743.84;10542597;28;19942;-64
2022/07/07 05:03:14;;;;;;;;;;;;;;;17.12;77.59;100747.00;10542494;28;20387;-63
2022/07/07 05:08:17;;;;;;;;;;;;;;;17.30;76.35;100742.94;10542327;28;19924;-64
2022/07/07 05:13:21;;;;;;;;;;;;;;;17.27;76.53;100743.88;10549657;28;19924;-69
2022/07/07 05:18:24;;;;;;;;;;;;;;;17.15;77.09;100739.03;10550368;28;19931;-65
2022/07/07 05:23:27;;;;;;;;;;;;;;;17.43;75.60;100746.88;10550518;28;19924;-66
2022/07/07 05:28:33;;;;;;;;;;;;;;;17.28;77.45;100743.00;10550118;28;20367;-63
2022/07/07 05:33:36;;;;;;;;;;;;;;;17.49;77.03;100738.88;10549904;28;19974;-67
2022/07/07 05:38:39;;;;;;;;;;;;;;;17.39;74.36;100741.81;10549778;28;20454;-66
2022/07/07 05:43:44;;;;;;;;;;;;;;;17.63;73.32;100744.53;10549622;28;19934;-67
2022/07/07 05:48:47;;;;;;;;;;;;;;;17.86;72.15;100747.25;10549507;28;19923;-66
2022/07/07 05:53:50;;;;;;;;;;;;;;;17.96;72.69;100743.41;10549003;28;20314;-64
2022/07/07 05:58:55;;;;;;;;;;;;;;;17.89;71.21;100749.78;10548656;28;19924;-63
2022/07/07 06:03:58;;;;;;;;;;;;;;;17.94;71.46;100745.22;10548717;28;19924;-64
2022/07/07 06:09:01;;;;;;;;;;;;;;;18.08;71.39;100742.13;10548512;28;19989;-66
2022/07/07 06:14:05;;;;;;;;;;;;;;;18.16;70.88;100750.59;10548388;28;19924;-64
2022/07/07 06:19:09;;;;;;;;;;;;;;;17.97;70.54;100745.13;10548302;28;19961;-65
2022/07/07 06:24:12;;;;;;;;;;;;;;;18.12;72.29;100744.59;10547173;28;19924;-64
2022/07/07 06:29:17;;;;;;;;;;;;;;;18.17;72.04;100742.66;10547816;28;19923;-66
2022/07/07 06:34:20;;;;;;;;;;;;;;;18.37;71.09;100750.72;10547486;28;19928;-65
2022/07/07 06:39:23;;;;;;;;;;;;;;;18.67;68.22;100748.78;10547314;28;19928;-65
2022/07/07 06:44:30;;;;;;;;;;;;;;;18.75;67.38;100748.47;10547303;28;20420;-65
2022/07/07 06:49:33;;;;;;;;;;;;;;;18.68;68.35;100741.72;10547446;28;19932;-67
2022/07/07 06:54:37;;;;;;;;;;;;;;;18.82;68.37;100740.31;10546962;28;20246;-67
2022/07/07 06:59:42;;;;;;;;;;;;;;;18.68;69.25;100739.97;10546334;28;20380;-65
2022/07/07 07:04:46;;;;;;;;;;;;;;;18.65;69.45;100747.09;10546650;28;20345;-68
2022/07/07 07:09:50;;;;;;;;;;;;;;;18.90;68.86;100734.75;10545983;28;20311;-63
2022/07/07 07:14:54;;;;;;;;;;;;;;;18.88;68.90;100728.72;10545858;28;19928;-65
2022/07/07 07:19:57;;;;;;;;;;;;;;;18.95;68.91;100722.25;10545458;28;19924;-68
2022/07/07 07:25:00;;;;;;;;;;;;;;;19.08;68.12;100724.41;10545535;28;19924;-64
2022/07/07 07:30:05;;;;;;;;;;;;;;;19.27;67.99;100719.25;10545403;28;19928;-65
2022/07/07 07:35:08;;;;;;;;;;;;;;;19.34;66.03;100718.13;10544974;28;19951;-64
2022/07/07 07:40:12;;;;;;;;;;;;;;;19.33;66.54;100717.25;10545017;28;20359;-66
2022/07/07 07:45:16;;;;;;;;;;;;;;;19.51;65.01;100720.94;10544638;28;19924;-65
2022/07/07 07:50:20;;;;;;;;;;;;;;;19.46;65.51;100715.88;10544783;28;19928;-64
2022/07/07 07:55:24;;;;;;;;;;;;;;;19.29;66.03;100715.63;10544472;28;19928;-64
2022/07/07 08:00:28;;;;;;;;;;;;;;;19.40;64.75;100717.88;10544273;28;19931;-63
2022/07/07 08:05:37;;;;;;;;;;;;;;;19.35;64.78;100717.19;10544520;28;20003;-62
2022/07/07 08:10:40;;;;;;;;;;;;;;;19.62;64.14;100723.13;10543810;28;20226;-63
2022/07/07 08:15:44;;;;;;;;;;;;;;;19.65;63.93;100718.59;10543950;28;19924;-63
2022/07/07 08:20:47;;;;;;;;;;;;;;;19.79;63.09;100726.78;10543751;28;19934;-67
2022/07/07 08:25:50;;;;;;;;;;;;;;;19.83;63.32;100725.72;10543703;28;20387;-65
2022/07/07 08:30:54;;;;;;;;;;;;;;;20.06;63.82;100722.09;10543433;28;20419;-66
2022/07/07 08:35:57;;;;;;;;;;;;;;;19.95;62.40;100727.81;10543546;28;19985;-67
2022/07/07 08:41:00;;;;;;;;;;;;;;;20.09;61.68;100714.91;10543142;28;20388;-65
2022/07/07 08:46:05;;;;;;;;;;;;;;;20.28;61.60;100723.78;10542698;28;19930;-66
2022/07/07 08:51:08;;;;;;;;;;;;;;;20.25;62.44;100716.00;10542846;28;20330;-67
2022/07/07 08:56:12;;;;;;;;;;;;;;;20.22;62.32;100712.66;10542937;28;19935;-65
2022/07/07 09:01:16;;;;;;;;;;;;;;;20.17;61.16;100715.47;10542831;28;19928;-65
2022/07/07 09:06:19;;;;;;;;;;;;;;;20.30;61.48;100715.78;10542595;28;19924;-69
2022/07/07 09:11:27;;;;;;;;;;;;;;;20.59;59.60;100718.84;10542847;28;19957;-67
2022/07/07 09:16:35;;;;;;;;;;;;;;;20.62;57.41;100715.22;10542291;28;20010;-69
2022/07/07 09:21:38;;;;;;;;;;;;;;;20.75;57.98;100705.81;10542307;28;19924;-66
2022/07/07 09:26:42;;;;;;;;;;;;;;;20.74;57.00;100705.88;10542431;28;19924;-68
2022/07/07 09:31:52;;;;;;;;;;;;;;;21.09;56.97;100695.41;10542107;28;19924;-65
2022/07/07 09:42:23;;;;;;;;;;;;;;;21.41;54.93;100697.38;10485834;28;20002;-66
2022/07/07 09:47:28;;;;;;;;;;;;;;;21.26;55.16;100698.09;10541922;28;20349;-62
2022/07/07 09:52:32;;;;;;;;;;;;;;;21.10;55.32;100705.06;10542478;28;19928;-66
2022/07/07 09:57:36;;;;;;;;;;;;;;;21.34;55.69;100700.38;10544727;28;19939;-66
2022/07/07 10:02:44;;;;;;;;;;;;;;;21.35;57.41;100695.00;10549764;28;19934;-69
2022/07/07 10:07:48;;;;;;;;;;;;;;;21.84;53.36;100698.75;10549197;28;19928;-64
2022/07/07 10:12:53;;;;;;;;;;;;;;;22.50;52.29;100689.91;10548459;28;19939;-66
2022/07/07 10:17:58;;;;;;;;;;;;;;;22.89;51.56;100681.66;10548431;28;19924;-63
2022/07/07 10:23:01;;;;;;;;;;;;;;;24.28;49.69;100673.50;10547802;28;20272;-66
2022/07/07 10:28:05;;;;;;;;;;;;;;;24.82;44.14;100670.06;10548210;28;19976;-66
2022/07/07 10:33:10;;;;;;;;;;;;;;;25.43;45.32;100656.34;10547693;28;19924;-67
2022/07/07 10:38:14;;;;;;;;;;;;;;;24.41;45.88;100675.28;10547727;28;19930;-64
2022/07/07 10:43:23;;;;;;;;;;;;;;;24.85;43.38;100659.25;10547588;28;19924;-71
2022/07/07 10:48:44;;;;;;;;;;;;;;;24.38;43.45;100671.97;10547432;28;20468;-66
2022/07/07 10:53:57;;;;;;;;;;;;;;;24.07;43.36;100661.53;10547103;28;19924;-64
2022/07/07 10:59:00;;;;;;;;;;;;;;;23.53;43.27;100658.53;10546654;28;19925;-65
2022/07/07 11:04:05;;;;;;;;;;;;;;;22.73;44.99;100660.47;10546500;28;20345;-67
2022/07/07 11:09:08;;;;;;;;;;;;;;;22.54;46.91;100662.41;10546134;28;19924;-65
2022/07/07 11:14:11;;;;;;;;;;;;;;;22.41;48.94;100666.63;10546048;28;19925;-66
2022/07/07 11:19:15;;;;;;;;;;;;;;;22.22;49.96;100657.97;10545927;28;19931;-64
2022/07/07 11:24:19;;;;;;;;;;;;;;;22.66;49.70;100664.38;10545601;28;19924;-66
2022/07/07 11:29:22;;;;;;;;;;;;;;;24.12;46.38;100657.66;10545241;28;20345;-66
2022/07/07 11:34:27;;;;;;;;;;;;;;;25.45;45.01;100649.97;10545440;28;19935;-72
2022/07/07 11:39:31;;;;;;;;;;;;;;;25.68;44.04;100648.44;10545357;28;19924;-65
2022/07/07 11:44:34;;;;;;;;;;;;;;;26.06;42.81;100642.19;10544770;28;19934;-65
2022/07/07 11:49:39;;;;;;;;;;;;;;;25.27;41.00;100655.59;10545138;28;19924;-67
2022/07/07 11:54:47;;;;;;;;;;;;;;;24.85;42.68;100653.94;10544481;28;19950;-68
2022/07/07 11:59:51;;;;;;;;;;;;;;;25.10;42.71;100654.06;10544259;28;19925;-65
2022/07/07 12:04:55;;;;;;;;;;;;;;;24.13;43.93;100655.84;10544631;28;19924;-65
2022/07/07 12:09:59;;;;;;;;;;;;;;;23.35;44.64;100658.75;10544202;28;19933;-69
2022/07/07 12:15:05;;;;;;;;;;;;;;;23.05;46.17;100660.47;10543827;28;19935;-67
2022/07/07 12:20:16;;;;;;;;;;;;;;;23.18;46.14;100658.81;10542891;28;19924;-64
2022/07/07 12:25:20;;;;;;;;;;;;;;;23.65;45.48;100668.41;10543407;28;20351;-65
2022/07/07 12:30:51;;;;;;;;;;;;;;;24.97;44.86;100647.84;10543310;28;20238;-66
2022/07/07 12:35:58;;;;;;;;;;;;;;;25.07;43.72;100643.63;10542977;28;19924;-70
2022/07/07 12:41:01;;;;;;;;;;;;;;;25.59;42.42;100647.22;10543158;28;19925;-67
2022/07/07 12:46:04;;;;;;;;;;;;;;;24.99;42.11;100649.44;10543490;28;19935;-63
2022/07/07 12:51:09;;;;;;;;;;;;;;;26.05;40.22;100635.19;10542856;28;20371;-66
2022/07/07 12:56:13;;;;;;;;;;;;;;;25.00;43.60;100632.56;10542487;28;19924;-65
2022/07/07 13:01:18;;;;;;;;;;;;;;;24.82;44.57;100628.44;10542538;28;20230;-68
2022/07/07 13:06:23;;;;;;;;;;;;;;;25.46;41.85;100622.41;10542675;28;19963;-69
2022/07/07 13:11:26;;;;;;;;;;;;;;;26.27;40.61;100629.19;10543259;28;20011;-65
2022/07/07 13:16:29;;;;;;;;;;;;;;;26.53;41.56;100614.03;10542731;28;20353;-66
2022/07/07 13:21:33;;;;;;;;;;;;;;;26.97;39.86;100609.88;10542166;28;19932;-63
2022/07/07 13:26:36;;;;;;;;;;;;;;;26.01;41.27;100616.81;10542978;28;19934;-67
2022/07/07 13:31:41;;;;;;;;;;;;;;;24.91;43.17;100621.66;10544816;28;19924;-64
2022/07/07 13:36:46;;;;;;;;;;;;;;;24.99;43.17;100606.06;10550231;28;19924;-65
2022/07/07 13:41:49;;;;;;;;;;;;;;;25.54;41.21;100606.78;10549629;28;19931;-66
2022/07/07 13:47:12;;;;;;;;;;;;;;;26.18;39.84;100606.75;10549238;28;19984;-66
2022/07/07 13:52:16;;;;;;;;;;;;;;;24.68;42.32;100604.53;10549485;28;19924;-68
2022/07/07 13:57:19;;;;;;;;;;;;;;;24.34;42.75;100607.63;10549343;28;20333;-67
2022/07/07 14:02:24;;;;;;;;;;;;;;;25.35;43.10;100600.97;10548934;28;19932;-70
2022/07/07 14:07:38;;;;;;;;;;;;;;;25.69;43.81;100597.78;10548687;28;19932;-66
2022/07/07 14:12:41;;;;;;;;;;;;;;;24.48;44.01;100590.81;10549277;28;20257;-65
2022/07/07 14:17:44;;;;;;;;;;;;;;;24.16;45.50;100595.47;10548435;28;19924;-69
2022/07/07 14:22:49;;;;;;;;;;;;;;;24.89;43.85;100595.22;10548022;28;19924;-69
2022/07/07 14:27:52;;;;;;;;;;;;;;;25.68;44.16;100587.25;10547950;28;19942;-65
2022/07/07 14:32:54;;;;;;;;;;;;;;;25.71;43.21;100587.03;10547796;28;19924;-66
2022/07/07 14:37:59;;;;;;;;;;;;;;;25.86;42.89;100593.97;10547924;28;19950;-68
2022/07/07 14:43:04;;;;;;;;;;;;;;;25.03;42.77;100589.84;10547114;28;20341;-67
2022/07/07 14:48:07;;;;;;;;;;;;;;;24.81;44.41;100594.88;10547083;28;19935;-64
2022/07/07 14:53:12;;;;;;;;;;;;;;;24.88;44.47;100595.31;10546547;28;20357;-69
2022/07/07 14:58:16;;;;;;;;;;;;;;;24.50;44.02;100588.91;10546765;28;19924;-68
2022/07/07 15:03:20;;;;;;;;;;;;;;;24.14;45.99;100586.78;10546492;28;19954;-65
2022/07/07 15:08:25;;;;;;;;;;;;;;;24.07;45.06;100590.78;10546303;28;19924;-62
2022/07/07 15:13:28;;;;;;;;;;;;;;;23.56;44.72;100601.84;10545821;28;19935;-63
2022/07/07 15:18:31;;;;;;;;;;;;;;;23.55;45.03;100590.41;10545748;28;19925;-63
2022/07/07 15:23:37;;;;;;;;;;;;;;;23.59;45.18;100583.94;10542683;28;19924;-65
2022/07/07 15:28:40;;;;;;;;;;;;;;;23.52;46.03;100595.03;10542214;28;19928;-66
2022/07/07 15:33:43;;;;;;;;;;;;;;;23.10;46.51;100587.75;10545168;28;19988;-66
2022/07/07 15:38:47;;;;;;;;;;;;;;;23.14;48.90;100585.78;10545244;28;20353;-64
2022/07/07 15:43:50;;;;;;;;;;;;;;;23.22;47.90;100576.44;10545757;28;19923;-62
2022/07/07 15:48:53;;;;;;;;;;;;;;;23.36;46.72;100586.28;10544743;28;20257;-63
2022/07/07 15:53:57;;;;;;;;;;;;;;;23.39;45.76;100586.09;10544688;28;20015;-69
2022/07/07 15:59:05;;;;;;;;;;;;;;;23.18;45.28;100587.28;10544169;28;20402;-65
2022/07/07 16:09:30;;;;;;;;;;;;;;;23.26;45.65;100585.94;10511843;28;19986;-64
2022/07/07 16:14:33;;;;;;;;;;;;;;;23.27;45.90;100584.97;10501831;28;19924;-65
2022/07/07 16:19:36;;;;;;;;;;;;;;;23.24;46.20;100589.59;10501371;28;19964;-65
2022/07/07 16:24:40;;;;;;;;;;;;;;;23.23;46.47;100588.75;10501918;28;19929;-66
2022/07/07 16:29:45;;;;;;;;;;;;;;;23.28;46.39;100596.47;10501167;28;21268;-68
2022/07/07 16:34:48;;;;;;;;;;;;;;;23.26;45.96;100593.03;10500995;28;20257;-64
2022/07/07 16:39:52;;;;;;;;;;;;;;;23.16;45.56;100581.25;10501112;28;19924;-66
2022/07/07 16:44:55;;;;;;;;;;;;;;;23.20;46.41;100586.28;10501202;28;19924;-67
2022/07/07 16:49:58;;;;;;;;;;;;;;;23.14;45.33;100584.00;10500954;28;19935;-67
2022/07/07 16:55:03;;;;;;;;;;;;;;;23.13;45.42;100586.72;10500742;28;19988;-67
2022/07/07 17:00:06;;;;;;;;;;;;;;;23.03;45.57;100588.19;10500637;28;19924;-65
2022/07/07 17:05:09;;;;;;;;;;;;;;;22.92;45.44;100595.91;10500840;28;19935;-66
2022/07/07 17:10:14;;;;;;;;;;;;;;;22.91;45.73;100597.69;10509013;28;19978;-67
2022/07/07 17:15:17;;;;;;;;;;;;;;;22.86;45.74;100597.09;10508683;28;20257;-67
2022/07/07 17:20:20;;;;;;;;;;;;;;;22.79;46.32;100601.03;10508374;28;20027;-67
2022/07/07 17:25:25;;;;;;;;;;;;;;;22.68;46.51;100604.28;10508033;28;19924;-65
2022/07/07 17:30:29;;;;;;;;;;;;;;;22.59;46.55;100596.84;10508211;28;20404;-65
2022/07/07 17:35:32;;;;;;;;;;;;;;;22.54;46.71;100590.97;10507766;28;19935;-67
2022/07/07 17:40:38;;;;;;;;;;;;;;;22.51;47.54;100595.53;10507564;28;19924;-68
2022/07/07 17:45:41;;;;;;;;;;;;;;;22.50;47.55;100593.84;10507700;28;20260;-70
2022/07/07 17:50:44;;;;;;;;;;;;;;;22.44;47.54;100597.66;10507670;28;19924;-66
2022/07/07 17:55:49;;;;;;;;;;;;;;;22.40;47.08;100596.13;10507453;28;20353;-67
2022/07/07 18:00:52;;;;;;;;;;;;;;;22.36;46.93;100601.69;10507066;28;19924;-69
2022/07/07 18:05:55;;;;;;;;;;;;;;;22.29;47.05;100609.09;10507221;28;19929;-66
2022/07/07 18:11:07;;;;;;;;;;;;;;;22.24;47.07;100599.69;10506871;28;19951;-68
2022/07/07 18:16:10;;;;;;;;;;;;;;;22.19;48.34;100599.97;10506551;28;19970;-66
2022/07/07 18:21:13;;;;;;;;;;;;;;;22.14;49.22;100601.13;10505369;28;20372;-66
2022/07/07 18:26:17;;;;;;;;;;;;;;;22.06;48.59;100605.94;10506102;28;20350;-67
2022/07/07 18:31:20;;;;;;;;;;;;;;;21.98;49.31;100602.88;10506356;28;19938;-63
2022/07/07 18:36:23;;;;;;;;;;;;;;;21.86;51.12;100609.66;10506255;28;19931;-67
2022/07/07 18:41:28;;;;;;;;;;;;;;;21.75;52.65;100609.31;10505716;28;20262;-67
2022/07/07 18:46:31;;;;;;;;;;;;;;;21.62;53.88;100611.75;10505286;28;19924;-65
2022/07/07 18:51:34;;;;;;;;;;;;;;;21.52;54.80;100620.22;10504995;28;19938;-66
2022/07/07 18:56:39;;;;;;;;;;;;;;;21.39;55.74;100627.91;10504903;28;19932;-72
2022/07/07 19:01:42;;;;;;;;;;;;;;;21.29;57.31;100626.66;10504751;28;19938;-70
2022/07/07 19:06:46;;;;;;;;;;;;;;;21.19;58.00;100632.47;10504756;28;20307;-69
2022/07/07 19:11:50;;;;;;;;;;;;;;;21.10;58.57;100635.56;10504920;28;19935;-69
2022/07/07 19:16:54;;;;;;;;;;;;;;;21.00;59.92;100635.13;10504051;28;20082;-67
2022/07/07 19:21:57;;;;;;;;;;;;;;;20.97;59.99;100639.69;10503793;28;19924;-71
2022/07/07 19:27:02;;;;;;;;;;;;;;;20.91;59.91;100658.47;10503818;28;19924;-67
2022/07/07 19:32:05;;;;;;;;;;;;;;;20.84;61.73;100654.41;10503220;28;19925;-67
2022/07/07 19:37:08;;;;;;;;;;;;;;;20.78;63.04;100666.09;10503146;28;20357;-66
2022/07/07 19:42:12;;;;;;;;;;;;;;;20.72;63.23;100671.66;10503126;28;19924;-64
2022/07/07 19:47:18;;;;;;;;;;;;;;;20.69;64.29;100674.47;10503150;28;19950;-69
2022/07/07 19:52:21;;;;;;;;;;;;;;;20.67;65.34;100682.41;10502606;28;19935;-71
2022/07/07 19:57:28;;;;;;;;;;;;;;;20.66;65.86;100688.63;10502637;28;19932;-65
2022/07/07 20:02:31;;;;;;;;;;;;;;;20.66;67.21;100679.84;10502418;28;19924;-65
2022/07/07 20:07:34;;;;;;;;;;;;;;;20.65;69.14;100689.56;10502133;28;19924;-65
2022/07/07 20:12:38;;;;;;;;;;;;;;;20.62;69.54;100692.31;10502114;28;19924;-68
2022/07/07 20:17:41;;;;;;;;;;;;;;;20.61;69.83;100690.63;10501745;28;19934;-66
2022/07/07 20:22:44;;;;;;;;;;;;;;;20.60;71.37;100699.44;10501484;28;19932;-70
2022/07/07 20:27:49;;;;;;;;;;;;;;;20.58;71.39;100703.97;10501662;28;19934;-67
2022/07/07 20:32:52;;;;;;;;;;;;;;;20.55;71.75;100708.53;10501447;28;20250;-67
2022/07/07 20:37:55;;;;;;;;;;;;;;;20.50;72.11;100708.72;10501498;28;20361;-71
2022/07/07 20:42:59;;;;;;;;;;;;;;;20.48;73.01;100720.25;10500589;28;19931;-68
2022/07/07 20:48:02;;;;;;;;;;;;;;;20.45;73.15;100718.59;10501159;28;19925;-66
2022/07/07 20:53:25;;;;;;;;;;;;;;;20.44;73.89;100718.69;10500925;28;20338;-68
2022/07/07 20:58:32;;;;;;;;;;;;;;;20.44;75.25;100723.97;10500974;28;19925;-66
2022/07/07 21:03:35;;;;;;;;;;;;;;;20.40;76.05;100717.09;10500894;28;19924;-65
2022/07/07 21:08:38;;;;;;;;;;;;;;;20.37;76.56;100723.38;10500596;28;19925;-67
2022/07/07 21:13:43;;;;;;;;;;;;;;;20.32;76.20;100724.50;10500676;28;20249;-67
2022/07/07 21:18:46;;;;;;;;;;;;;;;20.24;76.45;100719.56;10500442;28;20289;-68
2022/07/07 21:23:49;;;;;;;;;;;;;;;20.19;76.44;100724.16;10500528;28;19932;-69
2022/07/07 21:28:53;;;;;;;;;;;;;;;20.17;77.17;100730.44;10500351;28;19924;-70
2022/07/07 21:33:56;;;;;;;;;;;;;;;20.15;77.66;100733.13;10500394;28;19924;-66
2022/07/07 21:38:59;;;;;;;;;;;;;;;20.16;78.14;100740.13;10500222;28;19978;-65
2022/07/07 21:44:04;;;;;;;;;;;;;;;20.15;78.50;100745.44;10500176;28;20269;-66
2022/07/07 21:49:07;;;;;;;;;;;;;;;20.12;78.76;100751.69;10499986;28;19935;-73
2022/07/07 21:54:10;;;;;;;;;;;;;;;20.08;79.35;100752.75;10504435;28;19933;-65
2022/07/07 21:59:15;;;;;;;;;;;;;;;20.06;79.48;100753.72;10507187;28;19924;-67
2022/07/07 22:09:40;;;;;;;;;;;;;;;19.98;79.99;100759.34;10507096;28;19925;-69
2022/07/07 22:14:47;;;;;;;;;;;;;;;19.96;80.46;100752.41;10506576;28;20360;-66
2022/07/07 22:19:51;;;;;;;;;;;;;;;19.95;80.39;100761.25;10506642;28;20010;-65
2022/07/07 22:24:54;;;;;;;;;;;;;;;19.98;80.12;100767.25;10506885;28;19932;-66
2022/07/07 22:29:58;;;;;;;;;;;;;;;19.96;79.56;100765.59;10506290;28;19932;-66
2022/07/07 22:35:02;;;;;;;;;;;;;;;19.95;80.38;100763.88;10505782;28;20237;-66
2022/07/07 22:40:05;;;;;;;;;;;;;;;19.94;79.88;100770.06;10505705;28;19934;-65
2022/07/07 22:45:09;;;;;;;;;;;;;;;19.92;80.58;100766.63;10505487;28;19946;-66
2022/07/07 22:50:12;;;;;;;;;;;;;;;19.89;81.04;100765.00;10505651;28;19925;-65
2022/07/07 22:55:15;;;;;;;;;;;;;;;19.85;81.44;100771.31;10505146;28;19935;-65
2022/07/07 23:00:20;;;;;;;;;;;;;;;19.82;81.85;100770.56;10504994;28;19931;-65
2022/07/07 23:05:23;;;;;;;;;;;;;;;19.77;82.57;100769.91;10504029;28;19931;-67
2022/07/07 23:10:26;;;;;;;;;;;;;;;19.76;82.97;100768.19;10504465;28;19925;-66
2022/07/07 23:15:30;;;;;;;;;;;;;;;19.77;83.46;100768.13;10504253;28;19925;-67
2022/07/07 23:20:34;;;;;;;;;;;;;;;19.75;84.35;100777.88;10504279;28;19925;-66
2022/07/07 23:25:37;;;;;;;;;;;;;;;19.75;84.52;100790.19;10503989;28;19924;-66
2022/07/07 23:30:41;;;;;;;;;;;;;;;19.70;83.84;100786.88;10503761;28;19935;-67
2022/07/07 23:35:44;;;;;;;;;;;;;;;19.71;83.37;100786.81;10503818;28;19924;-66
2022/07/07 23:40:47;;;;;;;;;;;;;;;19.66;84.85;100786.13;10503365;28;19924;-69
2022/07/07 23:45:52;;;;;;;;;;;;;;;19.64;85.08;100789.78;10503179;28;19933;-65
2022/07/07 23:50:57;;;;;;;;;;;;;;;19.65;85.27;100787.06;10502944;28;19924;-65
2022/07/07 23:56:00;;;;;;;;;;;;;;;19.66;85.44;100782.63;10502585;28;19924;-65
